createdAt,value
2023-04-11T00:02:45.180Z,5.90
2023-04-11T00:08:06.386Z,5.22
2023-04-11T00:13:27.473Z,5.57
2023-04-11T00:18:48.217Z,5.72
2023-04-11T00:24:09.361Z,6.72
2023-04-11T00:29:30.037Z,5.88
2023-04-11T00:34:51.574Z,6.38
2023-04-11T00:40:16.132Z,7.07
2023-04-11T00:45:37.096Z,6.65
2023-04-11T00:50:58.117Z,7.13
2023-04-11T00:56:19.013Z,7.18
2023-04-11T01:01:39.915Z,7.13
2023-04-11T01:07:06.264Z,7.10
2023-04-11T01:12:29.344Z,6.70
2023-04-11T01:17:50.111Z,6.43
2023-04-11T01:23:11.378Z,6.45
2023-04-11T01:28:32.149Z,6.95
2023-04-11T01:33:54.804Z,5.68
2023-04-11T01:39:15.750Z,6.80
2023-04-11T01:44:37.282Z,6.90
2023-04-11T01:49:58.265Z,6.32
2023-04-11T01:55:19.017Z,6.32
2023-04-11T02:00:39.654Z,6.20
2023-04-11T02:06:00.686Z,6.28
2023-04-11T02:11:21.764Z,5.00
2023-04-11T02:16:51.155Z,5.53
2023-04-11T02:22:13.070Z,6.53
2023-04-11T02:27:34.611Z,5.13
2023-04-11T02:32:55.531Z,6.45
2023-04-11T02:38:16.271Z,5.50
2023-04-11T02:43:36.923Z,4.57
2023-04-11T02:48:58.265Z,5.88
2023-04-11T02:54:19.324Z,5.70
2023-04-11T02:59:40.521Z,6.35
2023-04-11T03:05:04.595Z,6.55
2023-04-11T03:10:29.364Z,5.97
2023-04-11T03:15:52.070Z,5.03
2023-04-11T03:21:13.607Z,6.93
2023-04-11T03:26:38.092Z,5.93
2023-04-11T03:32:04.293Z,6.07
2023-04-11T03:37:27.983Z,5.95
2023-04-11T03:42:50.012Z,5.35
2023-04-11T03:48:16.730Z,5.97
2023-04-11T03:53:44.394Z,5.68
2023-04-11T03:59:25.194Z,4.47
2023-04-11T04:04:58.994Z,5.55
2023-04-11T04:10:23.898Z,4.85
2023-04-11T04:15:46.631Z,5.55
2023-04-11T04:21:10.049Z,5.88
2023-04-11T04:26:31.737Z,5.65
2023-04-11T04:32:23.079Z,4.65
2023-04-11T04:37:50.045Z,4.93
2023-04-11T04:43:32.930Z,4.90
2023-04-11T04:49:08.446Z,4.72
2023-04-11T04:54:31.367Z,5.50
2023-04-11T04:59:52.432Z,5.47
2023-04-11T05:05:14.144Z,5.15
2023-04-11T05:10:35.467Z,5.55
2023-04-11T05:15:56.698Z,3.85
2023-04-11T05:21:20.093Z,4.80
2023-04-11T05:26:44.448Z,4.68
2023-04-11T05:32:08.218Z,5.22
2023-04-11T05:37:31.369Z,4.25
2023-04-11T05:42:52.413Z,5.82
2023-04-11T05:48:16.433Z,4.97
2023-04-11T05:53:37.411Z,5.80
2023-04-11T05:58:58.122Z,5.43
2023-04-11T06:04:18.915Z,5.70
2023-04-11T06:09:42.211Z,4.90
2023-04-11T06:15:03.407Z,5.85
2023-04-11T06:20:25.262Z,5.10
2023-04-11T06:25:46.375Z,5.20
2023-04-11T06:31:09.181Z,4.10
2023-04-11T06:36:30.253Z,4.40
2023-04-11T06:41:51.546Z,5.85
2023-04-11T06:47:18.538Z,4.90
2023-04-11T06:52:39.342Z,4.18
2023-04-11T06:57:59.992Z,5.30
2023-04-11T07:03:21.005Z,4.40
2023-04-11T07:08:42.398Z,4.53
2023-04-11T07:14:03.409Z,4.30
2023-04-11T07:19:24.133Z,4.00
2023-04-11T07:24:46.676Z,5.35
2023-04-11T07:30:08.786Z,3.90
2023-04-11T07:35:31.732Z,3.75
2023-04-11T07:40:52.407Z,4.07
2023-04-11T07:46:15.087Z,3.80
2023-04-11T07:51:36.134Z,4.10
2023-04-11T07:56:57.194Z,3.45
2023-04-11T08:02:18.010Z,4.05
2023-04-11T08:07:38.730Z,4.15
2023-04-11T08:12:59.678Z,4.20
2023-04-11T08:18:21.634Z,4.75
2023-04-11T08:23:42.803Z,5.38
2023-04-11T08:29:04.165Z,5.40
2023-04-11T08:34:24.821Z,4.53
2023-04-11T08:39:45.652Z,4.22
2023-04-11T08:45:08.838Z,5.00
2023-04-11T08:50:29.491Z,5.18
2023-04-11T08:55:51.001Z,5.13
2023-04-11T09:01:32.407Z,5.47
2023-04-11T09:07:00.543Z,5.47
2023-04-11T09:12:29.710Z,5.15
2023-04-11T09:17:51.182Z,5.38
2023-04-11T09:23:22.165Z,4.85
2023-04-11T09:28:50.606Z,5.75
2023-04-11T09:34:12.689Z,3.30
2023-04-11T09:39:33.963Z,3.03
2023-04-11T09:44:54.948Z,2.20
2023-04-11T09:50:17.093Z,3.10
2023-04-11T09:55:39.192Z,2.13
2023-04-11T10:01:01.385Z,2.15
2023-04-11T10:06:31.362Z,1.77
2023-04-11T10:11:52.418Z,1.65
2023-04-11T10:17:23.318Z,1.50
2023-04-11T10:22:51.384Z,1.80
2023-04-11T10:28:30.315Z,1.77
2023-04-11T10:34:16.596Z,2.20
2023-04-11T10:40:00.646Z,1.90
2023-04-11T10:45:26.787Z,1.23
2023-04-11T10:50:48.132Z,1.13
2023-04-11T10:56:08.819Z,1.48
2023-04-11T11:01:32.419Z,1.35
2023-04-11T11:06:59.086Z,1.20
2023-04-11T11:12:19.899Z,1.50
2023-04-11T11:17:42.861Z,1.33
2023-04-11T11:23:06.743Z,0.88
2023-04-11T11:33:49.498Z,0.60
2023-04-11T11:39:11.864Z,1.15
2023-04-11T11:44:32.659Z,0.90
2023-04-11T11:49:55.430Z,0.95
2023-04-11T11:55:36.698Z,1.00
2023-04-11T12:00:57.763Z,0.50
2023-04-11T12:06:18.677Z,0.80
2023-04-11T12:11:42.367Z,1.02
2023-04-11T12:17:03.516Z,0.80
2023-04-11T12:22:25.672Z,0.88
2023-04-11T12:27:47.141Z,0.68
2023-04-11T12:33:07.946Z,1.00
2023-04-11T12:38:29.158Z,0.70
2023-04-11T12:43:49.990Z,0.70
2023-04-11T12:49:10.697Z,0.75
2023-04-11T12:54:31.742Z,0.80
2023-04-11T12:59:52.724Z,0.60
2023-04-11T13:05:15.679Z,0.55
2023-04-11T13:10:36.751Z,0.60
2023-04-11T13:15:57.491Z,0.60
2023-04-11T13:21:18.240Z,0.47
2023-04-11T13:26:39.528Z,0.43
2023-04-11T13:32:00.289Z,0.40
2023-04-11T13:37:22.131Z,0.30
2023-04-11T13:42:43.130Z,0.35
2023-04-11T13:48:04.024Z,0.35
2023-04-11T13:53:24.919Z,0.35
2023-04-11T13:58:46.206Z,0.38
2023-04-11T14:04:07.525Z,0.30
2023-04-11T14:09:28.417Z,0.50
2023-04-11T14:14:49.643Z,0.40
2023-04-11T14:20:11.742Z,0.20
2023-04-11T14:25:33.480Z,0.40
2023-04-11T14:30:55.990Z,0.45
2023-04-11T14:36:16.682Z,0.60
2023-04-11T14:41:37.528Z,0.40
2023-04-11T14:46:58.410Z,0.30
2023-04-11T14:52:19.331Z,0.30
2023-04-11T14:57:52.775Z,3.40
2023-04-11T15:03:14.111Z,0.50
2023-04-11T15:08:35.013Z,0.45
2023-04-11T15:13:55.923Z,0.40
2023-04-11T15:19:16.979Z,0.50
2023-04-11T15:24:37.756Z,0.40
2023-04-11T15:29:59.697Z,0.30
2023-04-11T15:35:20.717Z,0.52
2023-04-11T15:40:42.271Z,0.40
2023-04-11T15:46:06.722Z,0.43
2023-04-11T15:51:27.598Z,0.50
2023-04-11T15:56:48.690Z,0.63
2023-04-11T16:02:09.497Z,0.52
2023-04-11T16:07:30.725Z,0.63
2023-04-11T16:12:51.482Z,0.50
2023-04-11T16:18:12.381Z,0.55
2023-04-11T16:23:33.231Z,0.60
2023-04-11T16:28:54.194Z,0.50
2023-04-11T16:34:15.134Z,0.40
2023-04-11T16:39:35.995Z,0.43
2023-04-11T16:44:56.620Z,0.50
2023-04-11T16:50:18.037Z,0.60
2023-04-11T16:55:38.870Z,0.80
2023-04-11T17:01:00.586Z,0.80
2023-04-11T17:06:21.461Z,0.50
2023-04-11T17:11:42.139Z,0.73
2023-04-11T17:17:03.054Z,0.90
2023-04-11T17:22:24.260Z,0.65
2023-04-11T17:27:44.872Z,0.80
2023-04-11T17:33:05.744Z,0.60
2023-04-11T17:38:26.550Z,0.80
2023-04-11T17:43:47.163Z,0.73
2023-04-11T17:49:07.911Z,1.00
2023-04-11T17:54:29.753Z,0.88
2023-04-11T17:59:51.417Z,0.70
2023-04-11T18:05:22.881Z,0.50
2023-04-11T18:10:45.102Z,0.85
2023-04-11T18:16:06.539Z,0.65
2023-04-11T18:21:27.661Z,0.50
2023-04-11T18:26:48.603Z,0.77
2023-04-11T18:32:09.213Z,0.50
2023-04-11T18:37:37.880Z,0.55
2023-04-11T18:42:58.910Z,0.52
2023-04-11T18:48:19.789Z,0.60
2023-04-11T18:53:41.839Z,0.65
2023-04-11T18:59:05.433Z,0.55
2023-04-11T19:04:29.212Z,0.73
2023-04-11T19:09:50.348Z,0.70
2023-04-11T19:15:11.736Z,0.60
2023-04-11T19:20:32.922Z,1.05
2023-04-11T19:25:54.823Z,0.80
2023-04-11T19:31:16.188Z,0.90
2023-04-11T19:36:37.242Z,0.68
2023-04-11T19:41:58.194Z,1.20
2023-04-11T19:47:19.621Z,0.80
2023-04-11T19:52:42.137Z,1.30
2023-04-11T19:58:03.020Z,0.93
2023-04-11T20:03:24.306Z,0.98
2023-04-11T20:08:46.010Z,1.00
2023-04-11T20:14:07.724Z,1.02
2023-04-11T20:19:29.779Z,1.10
2023-04-11T20:24:50.964Z,1.08
2023-04-11T20:30:14.355Z,1.13
2023-04-11T20:35:35.219Z,1.25
2023-04-11T20:40:56.816Z,0.98
2023-04-11T20:46:17.997Z,1.02
2023-04-11T20:51:39.174Z,1.00
2023-04-11T20:56:59.962Z,0.82
2023-04-11T21:02:21.321Z,0.98
2023-04-11T21:07:43.453Z,1.10
2023-04-11T21:13:04.422Z,1.10
2023-04-11T21:18:25.231Z,1.10
2023-04-11T21:23:46.150Z,0.82
2023-04-11T21:29:06.763Z,1.20
2023-04-11T21:34:27.560Z,1.30
2023-04-11T21:39:48.346Z,1.30
2023-04-11T21:45:09.477Z,1.25
2023-04-11T21:50:30.753Z,1.17
2023-04-11T21:55:51.695Z,0.90
2023-04-11T22:01:12.958Z,1.30
2023-04-11T22:06:33.618Z,1.30
2023-04-11T22:11:54.750Z,1.20
2023-04-11T22:17:15.412Z,1.35
2023-04-11T22:22:36.439Z,1.17
2023-04-11T22:27:58.848Z,1.20
2023-04-11T22:33:19.476Z,1.20
2023-04-11T22:38:40.399Z,1.20
2023-04-11T22:44:01.824Z,1.00
2023-04-11T22:49:22.912Z,1.02
2023-04-11T22:54:43.657Z,1.30
2023-04-11T23:00:07.299Z,1.10
2023-04-11T23:05:29.229Z,1.08
2023-04-11T23:10:50.130Z,1.02
2023-04-11T23:16:10.962Z,1.02
2023-04-11T23:21:31.766Z,1.25
2023-04-11T23:26:52.683Z,1.20
2023-04-11T23:32:13.592Z,1.60
2023-04-11T23:37:34.855Z,1.77
2023-04-11T23:42:57.385Z,1.98
2023-04-11T23:48:18.182Z,1.50
2023-04-11T23:53:38.924Z,1.58
2023-04-11T23:58:59.670Z,1.70
